sensor_id;sensor_type;location;lat;lon;timestamp;P1;durP1;ratioP1;P2;durP2;ratioP2
5762;SDS011;2906;53.282;9.508;2023-07-20T00:01:00;2.88;;;2.17;;
5762;SDS011;2906;53.282;9.508;2023-07-20T00:02:02;3.85;;;2.40;;
5762;SDS011;2906;53.282;9.508;2023-07-20T00:03:12;5.22;;;2.28;;
5762;SDS011;2906;53.282;9.508;2023-07-20T00:04:19;3.33;;;3.03;;
5762;SDS011;2906;53.282;9.508;2023-07-20T00:05:20;2.72;;;2.50;;
5762;SDS011;2906;53.282;9.508;2023-07-20T00:06:25;3.00;;;2.70;;
5762;SDS011;2906;53.282;9.508;2023-07-20T00:07:27;7.13;;;2.55;;
5762;SDS011;2906;53.282;9.508;2023-07-20T00:08:30;2.50;;;2.30;;
5762;SDS011;2906;53.282;9.508;2023-07-20T00:09:31;3.90;;;2.60;;
5762;SDS011;2906;53.282;9.508;2023-07-20T00:10:33;3.15;;;2.30;;
5762;SDS011;2906;53.282;9.508;2023-07-20T00:11:37;2.75;;;2.55;;
5762;SDS011;2906;53.282;9.508;2023-07-20T00:12:38;5.70;;;2.90;;
5762;SDS011;2906;53.282;9.508;2023-07-20T00:13:41;3.15;;;2.60;;
5762;SDS011;2906;53.282;9.508;2023-07-20T00:14:42;3.13;;;2.65;;
5762;SDS011;2906;53.282;9.508;2023-07-20T00:15:44;4.10;;;3.00;;
5762;SDS011;2906;53.282;9.508;2023-07-20T00:16:46;2.67;;;2.47;;
5762;SDS011;2906;53.282;9.508;2023-07-20T00:17:49;7.18;;;2.90;;
5762;SDS011;2906;53.282;9.508;2023-07-20T00:18:50;3.60;;;3.13;;
5762;SDS011;2906;53.282;9.508;2023-07-20T00:19:52;3.33;;;2.70;;
5762;SDS011;2906;53.282;9.508;2023-07-20T00:20:54;3.03;;;2.80;;
5762;SDS011;2906;53.282;9.508;2023-07-20T00:21:56;3.22;;;2.70;;
5762;SDS011;2906;53.282;9.508;2023-07-20T00:22:57;4.50;;;2.92;;
5762;SDS011;2906;53.282;9.508;2023-07-20T00:24:00;4.50;;;3.17;;
5762;SDS011;2906;53.282;9.508;2023-07-20T00:25:01;2.80;;;2.60;;
5762;SDS011;2906;53.282;9.508;2023-07-20T00:26:03;3.25;;;2.90;;
5762;SDS011;2906;53.282;9.508;2023-07-20T00:27:06;4.15;;;2.60;;
5762;SDS011;2906;53.282;9.508;2023-07-20T00:28:09;3.03;;;2.80;;
5762;SDS011;2906;53.282;9.508;2023-07-20T00:29:10;2.97;;;2.70;;
5762;SDS011;2906;53.282;9.508;2023-07-20T00:30:12;3.85;;;3.05;;
5762;SDS011;2906;53.282;9.508;2023-07-20T00:31:14;3.00;;;2.65;;
5762;SDS011;2906;53.282;9.508;2023-07-20T00:32:16;3.17;;;2.88;;
5762;SDS011;2906;53.282;9.508;2023-07-20T00:33:18;3.35;;;2.85;;
5762;SDS011;2906;53.282;9.508;2023-07-20T00:34:20;3.55;;;2.67;;
5762;SDS011;2906;53.282;9.508;2023-07-20T00:35:21;3.75;;;3.03;;
5762;SDS011;2906;53.282;9.508;2023-07-20T00:36:23;6.72;;;3.53;;
5762;SDS011;2906;53.282;9.508;2023-07-20T00:37:25;5.60;;;2.95;;
5762;SDS011;2906;53.282;9.508;2023-07-20T00:38:27;8.65;;;3.00;;
5762;SDS011;2906;53.282;9.508;2023-07-20T00:39:28;2.90;;;2.70;;
5762;SDS011;2906;53.282;9.508;2023-07-20T00:40:35;2.80;;;2.60;;
5762;SDS011;2906;53.282;9.508;2023-07-20T00:41:37;3.33;;;3.10;;
5762;SDS011;2906;53.282;9.508;2023-07-20T00:42:40;4.88;;;3.15;;
5762;SDS011;2906;53.282;9.508;2023-07-20T00:43:42;3.00;;;2.70;;
5762;SDS011;2906;53.282;9.508;2023-07-20T00:44:44;3.67;;;2.83;;
5762;SDS011;2906;53.282;9.508;2023-07-20T00:45:45;3.58;;;2.90;;
5762;SDS011;2906;53.282;9.508;2023-07-20T00:46:48;3.20;;;2.90;;
5762;SDS011;2906;53.282;9.508;2023-07-20T00:47:49;4.28;;;3.42;;
5762;SDS011;2906;53.282;9.508;2023-07-20T00:48:51;2.78;;;2.50;;
5762;SDS011;2906;53.282;9.508;2023-07-20T00:49:53;3.70;;;3.00;;
5762;SDS011;2906;53.282;9.508;2023-07-20T00:50:56;4.97;;;2.80;;
5762;SDS011;2906;53.282;9.508;2023-07-20T00:51:58;3.38;;;2.75;;
5762;SDS011;2906;53.282;9.508;2023-07-20T00:53:00;3.40;;;3.10;;
5762;SDS011;2906;53.282;9.508;2023-07-20T00:54:05;8.90;;;3.10;;
5762;SDS011;2906;53.282;9.508;2023-07-20T00:55:08;4.22;;;3.03;;
5762;SDS011;2906;53.282;9.508;2023-07-20T00:56:10;3.38;;;2.70;;
5762;SDS011;2906;53.282;9.508;2023-07-20T00:57:12;8.02;;;2.50;;
5762;SDS011;2906;53.282;9.508;2023-07-20T00:58:16;3.50;;;3.20;;
5762;SDS011;2906;53.282;9.508;2023-07-20T00:59:18;4.35;;;2.95;;
5762;SDS011;2906;53.282;9.508;2023-07-20T01:00:20;4.70;;;3.40;;
5762;SDS011;2906;53.282;9.508;2023-07-20T01:01:22;7.32;;;3.45;;
5762;SDS011;2906;53.282;9.508;2023-07-20T01:02:23;3.58;;;3.28;;
5762;SDS011;2906;53.282;9.508;2023-07-20T01:03:26;4.28;;;3.50;;
5762;SDS011;2906;53.282;9.508;2023-07-20T01:04:27;3.80;;;3.40;;
5762;SDS011;2906;53.282;9.508;2023-07-20T01:05:32;3.15;;;2.95;;
5762;SDS011;2906;53.282;9.508;2023-07-20T01:06:36;4.15;;;3.20;;
5762;SDS011;2906;53.282;9.508;2023-07-20T01:07:42;3.72;;;2.90;;
5762;SDS011;2906;53.282;9.508;2023-07-20T01:08:47;4.72;;;3.10;;
5762;SDS011;2906;53.282;9.508;2023-07-20T01:09:52;3.17;;;2.88;;
5762;SDS011;2906;53.282;9.508;2023-07-20T01:10:54;4.05;;;3.30;;
5762;SDS011;2906;53.282;9.508;2023-07-20T01:11:57;6.50;;;3.30;;
5762;SDS011;2906;53.282;9.508;2023-07-20T01:13:02;4.15;;;3.28;;
5762;SDS011;2906;53.282;9.508;2023-07-20T01:14:06;3.15;;;2.92;;
5762;SDS011;2906;53.282;9.508;2023-07-20T01:15:08;4.22;;;3.15;;
5762;SDS011;2906;53.282;9.508;2023-07-20T01:16:11;3.38;;;2.92;;
5762;SDS011;2906;53.282;9.508;2023-07-20T01:17:12;11.25;;;3.10;;
5762;SDS011;2906;53.282;9.508;2023-07-20T01:18:14;3.40;;;3.10;;
5762;SDS011;2906;53.282;9.508;2023-07-20T01:19:15;3.92;;;3.53;;
5762;SDS011;2906;53.282;9.508;2023-07-20T01:20:19;4.28;;;3.75;;
5762;SDS011;2906;53.282;9.508;2023-07-20T01:21:24;3.75;;;3.35;;
5762;SDS011;2906;53.282;9.508;2023-07-20T01:22:33;3.80;;;3.50;;
5762;SDS011;2906;53.282;9.508;2023-07-20T01:25:03;3.55;;;3.25;;
5762;SDS011;2906;53.282;9.508;2023-07-20T01:26:12;4.63;;;3.95;;
5762;SDS011;2906;53.282;9.508;2023-07-20T01:27:33;3.05;;;2.85;;
5762;SDS011;2906;53.282;9.508;2023-07-20T01:28:48;4.45;;;3.20;;
5762;SDS011;2906;53.282;9.508;2023-07-20T01:30:03;4.50;;;3.50;;
5762;SDS011;2906;53.282;9.508;2023-07-20T01:31:14;4.50;;;3.03;;
5762;SDS011;2906;53.282;9.508;2023-07-20T01:32:17;4.55;;;3.65;;
5762;SDS011;2906;53.282;9.508;2023-07-20T01:33:19;4.55;;;3.80;;
5762;SDS011;2906;53.282;9.508;2023-07-20T01:34:21;4.95;;;3.88;;
5762;SDS011;2906;53.282;9.508;2023-07-20T01:35:26;5.93;;;3.70;;
5762;SDS011;2906;53.282;9.508;2023-07-20T01:36:29;3.90;;;3.50;;
5762;SDS011;2906;53.282;9.508;2023-07-20T01:37:31;3.97;;;3.25;;
5762;SDS011;2906;53.282;9.508;2023-07-20T01:38:35;4.45;;;4.05;;
5762;SDS011;2906;53.282;9.508;2023-07-20T01:39:37;4.47;;;3.30;;
5762;SDS011;2906;53.282;9.508;2023-07-20T01:40:40;7.22;;;3.97;;
5762;SDS011;2906;53.282;9.508;2023-07-20T01:41:41;4.45;;;3.40;;
5762;SDS011;2906;53.282;9.508;2023-07-20T01:42:44;6.85;;;3.80;;
5762;SDS011;2906;53.282;9.508;2023-07-20T01:43:46;4.35;;;3.88;;
5762;SDS011;2906;53.282;9.508;2023-07-20T01:44:50;4.25;;;3.28;;
5762;SDS011;2906;53.282;9.508;2023-07-20T01:45:51;3.92;;;3.63;;
5762;SDS011;2906;53.282;9.508;2023-07-20T01:46:55;5.43;;;3.60;;
5762;SDS011;2906;53.282;9.508;2023-07-20T01:47:56;3.83;;;3.30;;
5762;SDS011;2906;53.282;9.508;2023-07-20T01:48:58;8.77;;;3.97;;
5762;SDS011;2906;53.282;9.508;2023-07-20T01:50:00;4.00;;;3.60;;
5762;SDS011;2906;53.282;9.508;2023-07-20T01:51:02;6.00;;;3.30;;
5762;SDS011;2906;53.282;9.508;2023-07-20T01:52:04;4.18;;;3.30;;
5762;SDS011;2906;53.282;9.508;2023-07-20T01:53:06;3.63;;;3.33;;
5762;SDS011;2906;53.282;9.508;2023-07-20T01:54:07;6.97;;;3.22;;
5762;SDS011;2906;53.282;9.508;2023-07-20T01:55:10;3.03;;;2.70;;
5762;SDS011;2906;53.282;9.508;2023-07-20T01:56:11;7.32;;;3.40;;
5762;SDS011;2906;53.282;9.508;2023-07-20T01:57:13;3.13;;;2.92;;
5762;SDS011;2906;53.282;9.508;2023-07-20T01:58:15;5.65;;;3.10;;
5762;SDS011;2906;53.282;9.508;2023-07-20T01:59:17;3.78;;;3.30;;
5762;SDS011;2906;53.282;9.508;2023-07-20T02:00:19;3.15;;;2.80;;
5762;SDS011;2906;53.282;9.508;2023-07-20T02:01:24;4.25;;;3.72;;
5762;SDS011;2906;53.282;9.508;2023-07-20T02:02:27;4.10;;;2.70;;
5762;SDS011;2906;53.282;9.508;2023-07-20T02:03:29;3.95;;;2.90;;
5762;SDS011;2906;53.282;9.508;2023-07-20T02:04:31;4.35;;;2.80;;
5762;SDS011;2906;53.282;9.508;2023-07-20T02:05:33;4.18;;;3.60;;
5762;SDS011;2906;53.282;9.508;2023-07-20T02:06:34;4.05;;;3.20;;
5762;SDS011;2906;53.282;9.508;2023-07-20T02:07:36;2.90;;;2.70;;
5762;SDS011;2906;53.282;9.508;2023-07-20T02:08:38;4.57;;;2.90;;
5762;SDS011;2906;53.282;9.508;2023-07-20T02:09:40;3.65;;;2.83;;
5762;SDS011;2906;53.282;9.508;2023-07-20T02:10:41;3.30;;;3.00;;
5762;SDS011;2906;53.282;9.508;2023-07-20T02:11:43;3.05;;;2.80;;
5762;SDS011;2906;53.282;9.508;2023-07-20T02:12:45;3.80;;;3.03;;
5762;SDS011;2906;53.282;9.508;2023-07-20T02:13:47;2.60;;;2.42;;
5762;SDS011;2906;53.282;9.508;2023-07-20T02:14:49;3.30;;;3.00;;
5762;SDS011;2906;53.282;9.508;2023-07-20T02:15:51;7.10;;;2.80;;
5762;SDS011;2906;53.282;9.508;2023-07-20T02:16:53;3.15;;;2.90;;
5762;SDS011;2906;53.282;9.508;2023-07-20T02:17:59;2.80;;;2.60;;
5762;SDS011;2906;53.282;9.508;2023-07-20T02:19:00;3.20;;;2.60;;
5762;SDS011;2906;53.282;9.508;2023-07-20T02:20:04;3.20;;;2.90;;
5762;SDS011;2906;53.282;9.508;2023-07-20T02:21:08;2.72;;;2.53;;
5762;SDS011;2906;53.282;9.508;2023-07-20T02:22:11;4.32;;;2.78;;
5762;SDS011;2906;53.282;9.508;2023-07-20T02:23:12;2.92;;;2.72;;
5762;SDS011;2906;53.282;9.508;2023-07-20T02:24:14;3.15;;;2.45;;
5762;SDS011;2906;53.282;9.508;2023-07-20T02:25:16;2.83;;;2.50;;
5762;SDS011;2906;53.282;9.508;2023-07-20T02:26:18;4.20;;;3.05;;
5762;SDS011;2906;53.282;9.508;2023-07-20T02:27:19;2.90;;;2.70;;
5762;SDS011;2906;53.282;9.508;2023-07-20T02:28:21;2.72;;;2.47;;
5762;SDS011;2906;53.282;9.508;2023-07-20T02:29:23;2.53;;;2.30;;
5762;SDS011;2906;53.282;9.508;2023-07-20T02:30:25;3.45;;;3.00;;
5762;SDS011;2906;53.282;9.508;2023-07-20T02:31:27;2.88;;;2.67;;
5762;SDS011;2906;53.282;9.508;2023-07-20T02:32:29;4.35;;;2.50;;
5762;SDS011;2906;53.282;9.508;2023-07-20T02:33:33;3.13;;;2.83;;
5762;SDS011;2906;53.282;9.508;2023-07-20T02:34:34;3.50;;;2.60;;
5762;SDS011;2906;53.282;9.508;2023-07-20T02:35:36;3.00;;;2.80;;
5762;SDS011;2906;53.282;9.508;2023-07-20T02:36:38;2.90;;;2.70;;
5762;SDS011;2906;53.282;9.508;2023-07-20T02:37:42;2.92;;;2.70;;
5762;SDS011;2906;53.282;9.508;2023-07-20T02:38:44;3.20;;;2.90;;
5762;SDS011;2906;53.282;9.508;2023-07-20T02:39:45;8.10;;;2.42;;
5762;SDS011;2906;53.282;9.508;2023-07-20T02:40:47;3.13;;;2.92;;
5762;SDS011;2906;53.282;9.508;2023-07-20T02:41:48;6.72;;;3.17;;
5762;SDS011;2906;53.282;9.508;2023-07-20T02:42:50;3.08;;;2.78;;
5762;SDS011;2906;53.282;9.508;2023-07-20T02:43:52;3.28;;;2.97;;
5762;SDS011;2906;53.282;9.508;2023-07-20T02:44:53;3.00;;;2.80;;
5762;SDS011;2906;53.282;9.508;2023-07-20T02:45:55;3.00;;;2.75;;
5762;SDS011;2906;53.282;9.508;2023-07-20T02:46:57;3.05;;;2.75;;
5762;SDS011;2906;53.282;9.508;2023-07-20T02:47:59;3.95;;;2.97;;
5762;SDS011;2906;53.282;9.508;2023-07-20T02:49:02;3.08;;;2.78;;
5762;SDS011;2906;53.282;9.508;2023-07-20T02:50:06;5.18;;;3.60;;
5762;SDS011;2906;53.282;9.508;2023-07-20T02:51:08;3.67;;;3.13;;
5762;SDS011;2906;53.282;9.508;2023-07-20T02:52:11;3.90;;;3.60;;
5762;SDS011;2906;53.282;9.508;2023-07-20T02:53:12;3.90;;;3.47;;
5762;SDS011;2906;53.282;9.508;2023-07-20T02:54:15;5.00;;;3.60;;
5762;SDS011;2906;53.282;9.508;2023-07-20T02:55:16;4.45;;;3.40;;
5762;SDS011;2906;53.282;9.508;2023-07-20T02:56:19;4.95;;;3.60;;
5762;SDS011;2906;53.282;9.508;2023-07-20T02:57:20;3.80;;;3.50;;
5762;SDS011;2906;53.282;9.508;2023-07-20T02:58:23;5.63;;;3.70;;
5762;SDS011;2906;53.282;9.508;2023-07-20T02:59:24;5.78;;;3.55;;
5762;SDS011;2906;53.282;9.508;2023-07-20T03:00:26;4.38;;;3.97;;
5762;SDS011;2906;53.282;9.508;2023-07-20T03:01:28;4.18;;;3.80;;
5762;SDS011;2906;53.282;9.508;2023-07-20T03:02:30;6.85;;;4.15;;
5762;SDS011;2906;53.282;9.508;2023-07-20T03:03:31;4.65;;;4.10;;
5762;SDS011;2906;53.282;9.508;2023-07-20T03:04:40;4.38;;;3.90;;
5762;SDS011;2906;53.282;9.508;2023-07-20T03:05:41;4.03;;;3.63;;
5762;SDS011;2906;53.282;9.508;2023-07-20T03:06:44;4.53;;;3.25;;
5762;SDS011;2906;53.282;9.508;2023-07-20T03:07:45;4.07;;;3.72;;
5762;SDS011;2906;53.282;9.508;2023-07-20T03:08:47;5.60;;;3.97;;
5762;SDS011;2906;53.282;9.508;2023-07-20T03:09:52;4.05;;;3.65;;
5762;SDS011;2906;53.282;9.508;2023-07-20T03:10:55;4.30;;;3.90;;
5762;SDS011;2906;53.282;9.508;2023-07-20T03:11:56;4.35;;;3.90;;
5762;SDS011;2906;53.282;9.508;2023-07-20T03:12:58;4.25;;;3.95;;
5762;SDS011;2906;53.282;9.508;2023-07-20T03:14:00;3.83;;;3.50;;
5762;SDS011;2906;53.282;9.508;2023-07-20T03:15:02;4.20;;;3.80;;
5762;SDS011;2906;53.282;9.508;2023-07-20T03:16:03;3.80;;;3.50;;
5762;SDS011;2906;53.282;9.508;2023-07-20T03:17:11;5.35;;;3.70;;
5762;SDS011;2906;53.282;9.508;2023-07-20T03:18:12;5.32;;;3.50;;
5762;SDS011;2906;53.282;9.508;2023-07-20T03:19:14;8.52;;;3.67;;
5762;SDS011;2906;53.282;9.508;2023-07-20T03:20:17;3.60;;;3.30;;
5762;SDS011;2906;53.282;9.508;2023-07-20T03:21:19;6.32;;;3.22;;
5762;SDS011;2906;53.282;9.508;2023-07-20T03:22:21;3.85;;;3.55;;
5762;SDS011;2906;53.282;9.508;2023-07-20T03:23:24;6.25;;;3.95;;
5762;SDS011;2906;53.282;9.508;2023-07-20T03:24:26;5.43;;;3.75;;
5762;SDS011;2906;53.282;9.508;2023-07-20T03:25:28;3.25;;;2.95;;
5762;SDS011;2906;53.282;9.508;2023-07-20T03:26:30;4.80;;;3.42;;
5762;SDS011;2906;53.282;9.508;2023-07-20T03:27:32;4.22;;;3.33;;
5762;SDS011;2906;53.282;9.508;2023-07-20T03:28:33;9.55;;;3.78;;
5762;SDS011;2906;53.282;9.508;2023-07-20T03:29:36;4.60;;;3.25;;
5762;SDS011;2906;53.282;9.508;2023-07-20T03:30:37;3.92;;;3.55;;
5762;SDS011;2906;53.282;9.508;2023-07-20T03:31:39;7.57;;;3.25;;
5762;SDS011;2906;53.282;9.508;2023-07-20T03:32:40;4.05;;;3.65;;
5762;SDS011;2906;53.282;9.508;2023-07-20T03:33:43;3.90;;;3.22;;
5762;SDS011;2906;53.282;9.508;2023-07-20T03:34:44;5.75;;;3.42;;
5762;SDS011;2906;53.282;9.508;2023-07-20T03:35:47;4.65;;;3.40;;
5762;SDS011;2906;53.282;9.508;2023-07-20T03:36:49;5.68;;;3.35;;
5762;SDS011;2906;53.282;9.508;2023-07-20T03:37:51;3.97;;;3.47;;
5762;SDS011;2906;53.282;9.508;2023-07-20T03:38:52;3.85;;;3.53;;
5762;SDS011;2906;53.282;9.508;2023-07-20T03:39:55;6.22;;;3.80;;
5762;SDS011;2906;53.282;9.508;2023-07-20T03:40:56;4.55;;;3.40;;
5762;SDS011;2906;53.282;9.508;2023-07-20T03:41:59;5.88;;;3.90;;
5762;SDS011;2906;53.282;9.508;2023-07-20T03:43:00;6.00;;;2.88;;
5762;SDS011;2906;53.282;9.508;2023-07-20T03:44:03;3.88;;;2.85;;
5762;SDS011;2906;53.282;9.508;2023-07-20T03:45:05;3.72;;;3.42;;
5762;SDS011;2906;53.282;9.508;2023-07-20T03:46:07;3.70;;;3.40;;
5762;SDS011;2906;53.282;9.508;2023-07-20T03:47:08;5.60;;;3.65;;
5762;SDS011;2906;53.282;9.508;2023-07-20T03:48:10;5.00;;;3.22;;
5762;SDS011;2906;53.282;9.508;2023-07-20T03:49:12;3.50;;;3.20;;
5762;SDS011;2906;53.282;9.508;2023-07-20T03:50:13;3.50;;;2.92;;
5762;SDS011;2906;53.282;9.508;2023-07-20T03:51:17;4.18;;;3.20;;
5762;SDS011;2906;53.282;9.508;2023-07-20T03:52:19;3.60;;;3.30;;
5762;SDS011;2906;53.282;9.508;2023-07-20T03:53:21;5.80;;;3.35;;
5762;SDS011;2906;53.282;9.508;2023-07-20T03:54:22;3.70;;;3.40;;
5762;SDS011;2906;53.282;9.508;2023-07-20T03:55:25;3.35;;;3.13;;
5762;SDS011;2906;53.282;9.508;2023-07-20T03:56:26;3.40;;;3.10;;
5762;SDS011;2906;53.282;9.508;2023-07-20T03:57:28;3.30;;;3.00;;
5762;SDS011;2906;53.282;9.508;2023-07-20T03:58:32;3.30;;;3.00;;
5762;SDS011;2906;53.282;9.508;2023-07-20T03:59:34;3.50;;;3.15;;
5762;SDS011;2906;53.282;9.508;2023-07-20T04:00:35;4.43;;;3.17;;
5762;SDS011;2906;53.282;9.508;2023-07-20T04:01:37;3.70;;;3.35;;
5762;SDS011;2906;53.282;9.508;2023-07-20T04:02:40;3.45;;;3.10;;
5762;SDS011;2906;53.282;9.508;2023-07-20T04:03:41;3.15;;;2.92;;
5762;SDS011;2906;53.282;9.508;2023-07-20T04:04:44;3.35;;;3.05;;
5762;SDS011;2906;53.282;9.508;2023-07-20T04:05:45;3.53;;;3.22;;
5762;SDS011;2906;53.282;9.508;2023-07-20T04:06:49;3.13;;;2.90;;
5762;SDS011;2906;53.282;9.508;2023-07-20T04:07:50;5.05;;;4.05;;
5762;SDS011;2906;53.282;9.508;2023-07-20T04:08:52;5.65;;;3.60;;
5762;SDS011;2906;53.282;9.508;2023-07-20T04:09:54;3.42;;;3.13;;
5762;SDS011;2906;53.282;9.508;2023-07-20T04:10:56;3.20;;;2.90;;
5762;SDS011;2906;53.282;9.508;2023-07-20T04:11:57;4.63;;;2.83;;
5762;SDS011;2906;53.282;9.508;2023-07-20T04:13:00;3.25;;;3.00;;
5762;SDS011;2906;53.282;9.508;2023-07-20T04:14:01;5.80;;;2.97;;
5762;SDS011;2906;53.282;9.508;2023-07-20T04:15:04;5.57;;;2.95;;
5762;SDS011;2906;53.282;9.508;2023-07-20T04:16:06;3.70;;;3.40;;
5762;SDS011;2906;53.282;9.508;2023-07-20T04:17:08;6.40;;;3.30;;
5762;SDS011;2906;53.282;9.508;2023-07-20T04:18:13;3.10;;;2.80;;
5762;SDS011;2906;53.282;9.508;2023-07-20T04:19:15;3.22;;;3.03;;
5762;SDS011;2906;53.282;9.508;2023-07-20T04:20:18;6.72;;;3.58;;
5762;SDS011;2906;53.282;9.508;2023-07-20T04:21:20;3.75;;;3.03;;
5762;SDS011;2906;53.282;9.508;2023-07-20T04:22:22;2.97;;;2.78;;
5762;SDS011;2906;53.282;9.508;2023-07-20T04:23:25;2.95;;;2.75;;
5762;SDS011;2906;53.282;9.508;2023-07-20T04:24:26;3.55;;;3.25;;
5762;SDS011;2906;53.282;9.508;2023-07-20T04:25:28;3.70;;;2.80;;
5762;SDS011;2906;53.282;9.508;2023-07-20T04:26:33;2.95;;;2.70;;
5762;SDS011;2906;53.282;9.508;2023-07-20T04:27:37;2.90;;;2.70;;
5762;SDS011;2906;53.282;9.508;2023-07-20T04:28:38;4.63;;;2.35;;
5762;SDS011;2906;53.282;9.508;2023-07-20T04:29:42;3.00;;;2.80;;
5762;SDS011;2906;53.282;9.508;2023-07-20T04:30:43;6.75;;;2.70;;
5762;SDS011;2906;53.282;9.508;2023-07-20T04:31:46;3.10;;;2.90;;
5762;SDS011;2906;53.282;9.508;2023-07-20T04:32:47;3.90;;;2.65;;
5762;SDS011;2906;53.282;9.508;2023-07-20T04:33:49;2.80;;;2.60;;
5762;SDS011;2906;53.282;9.508;2023-07-20T04:34:51;2.92;;;2.72;;
5762;SDS011;2906;53.282;9.508;2023-07-20T04:35:53;2.85;;;2.65;;
5762;SDS011;2906;53.282;9.508;2023-07-20T04:36:55;3.58;;;2.80;;
5762;SDS011;2906;53.282;9.508;2023-07-20T04:37:58;5.40;;;3.13;;
5762;SDS011;2906;53.282;9.508;2023-07-20T04:39:00;5.93;;;2.78;;
5762;SDS011;2906;53.282;9.508;2023-07-20T04:40:03;4.55;;;2.75;;
5762;SDS011;2906;53.282;9.508;2023-07-20T04:41:05;4.55;;;2.88;;
5762;SDS011;2906;53.282;9.508;2023-07-20T04:42:07;2.60;;;2.40;;
5762;SDS011;2906;53.282;9.508;2023-07-20T04:43:09;3.78;;;3.47;;
5762;SDS011;2906;53.282;9.508;2023-07-20T04:44:14;8.07;;;3.00;;
5762;SDS011;2906;53.282;9.508;2023-07-20T04:45:16;5.45;;;2.72;;
5762;SDS011;2906;53.282;9.508;2023-07-20T04:46:19;3.78;;;3.15;;
5762;SDS011;2906;53.282;9.508;2023-07-20T04:47:21;5.03;;;3.10;;
5762;SDS011;2906;53.282;9.508;2023-07-20T04:48:23;3.33;;;3.03;;
5762;SDS011;2906;53.282;9.508;2023-07-20T04:49:25;3.15;;;2.70;;
5762;SDS011;2906;53.282;9.508;2023-07-20T04:50:27;5.55;;;3.13;;
5762;SDS011;2906;53.282;9.508;2023-07-20T04:51:28;3.88;;;3.08;;
5762;SDS011;2906;53.282;9.508;2023-07-20T04:52:31;3.90;;;3.40;;
5762;SDS011;2906;53.282;9.508;2023-07-20T04:53:34;4.22;;;3.67;;
5762;SDS011;2906;53.282;9.508;2023-07-20T04:54:36;4.05;;;3.75;;
5762;SDS011;2906;53.282;9.508;2023-07-20T04:55:38;4.20;;;3.80;;
5762;SDS011;2906;53.282;9.508;2023-07-20T04:56:43;5.32;;;4.00;;
5762;SDS011;2906;53.282;9.508;2023-07-20T04:57:44;4.60;;;4.20;;
5762;SDS011;2906;53.282;9.508;2023-07-20T04:58:46;4.88;;;4.38;;
5762;SDS011;2906;53.282;9.508;2023-07-20T04:59:47;5.18;;;4.35;;
5762;SDS011;2906;53.282;9.508;2023-07-20T05:00:50;5.93;;;4.95;;
5762;SDS011;2906;53.282;9.508;2023-07-20T05:01:51;5.22;;;4.50;;
5762;SDS011;2906;53.282;9.508;2023-07-20T05:02:53;4.63;;;4.22;;
5762;SDS011;2906;53.282;9.508;2023-07-20T05:03:55;4.65;;;4.25;;
5762;SDS011;2906;53.282;9.508;2023-07-20T05:04:57;5.85;;;5.25;;
5762;SDS011;2906;53.282;9.508;2023-07-20T05:05:58;4.75;;;4.15;;
5762;SDS011;2906;53.282;9.508;2023-07-20T05:07:00;4.95;;;4.55;;
5762;SDS011;2906;53.282;9.508;2023-07-20T05:08:03;5.05;;;4.55;;
5762;SDS011;2906;53.282;9.508;2023-07-20T05:09:06;6.20;;;4.85;;
5762;SDS011;2906;53.282;9.508;2023-07-20T05:10:08;5.57;;;4.72;;
5762;SDS011;2906;53.282;9.508;2023-07-20T05:11:10;4.82;;;4.35;;
5762;SDS011;2906;53.282;9.508;2023-07-20T05:12:12;4.90;;;4.50;;
5762;SDS011;2906;53.282;9.508;2023-07-20T05:13:14;5.28;;;4.78;;
5762;SDS011;2906;53.282;9.508;2023-07-20T05:14:15;7.68;;;4.57;;
5762;SDS011;2906;53.282;9.508;2023-07-20T05:15:18;6.85;;;5.68;;
5762;SDS011;2906;53.282;9.508;2023-07-20T05:16:19;7.30;;;5.00;;
5762;SDS011;2906;53.282;9.508;2023-07-20T05:17:21;6.72;;;4.95;;
5762;SDS011;2906;53.282;9.508;2023-07-20T05:18:23;7.28;;;5.43;;
5762;SDS011;2906;53.282;9.508;2023-07-20T05:19:25;6.50;;;5.88;;
5762;SDS011;2906;53.282;9.508;2023-07-20T05:20:26;7.30;;;5.65;;
5762;SDS011;2906;53.282;9.508;2023-07-20T05:21:28;6.55;;;5.53;;
5762;SDS011;2906;53.282;9.508;2023-07-20T05:22:30;7.00;;;5.40;;
5762;SDS011;2906;53.282;9.508;2023-07-20T05:23:32;12.60;;;5.90;;
5762;SDS011;2906;53.282;9.508;2023-07-20T05:24:35;7.65;;;5.65;;
5762;SDS011;2906;53.282;9.508;2023-07-20T05:25:37;8.75;;;5.00;;
5762;SDS011;2906;53.282;9.508;2023-07-20T05:26:38;8.13;;;5.97;;
5762;SDS011;2906;53.282;9.508;2023-07-20T05:27:40;5.80;;;5.30;;
5762;SDS011;2906;53.282;9.508;2023-07-20T05:28:42;7.65;;;5.50;;
5762;SDS011;2906;53.282;9.508;2023-07-20T05:29:44;5.82;;;5.18;;
5762;SDS011;2906;53.282;9.508;2023-07-20T05:30:45;5.70;;;5.20;;
5762;SDS011;2906;53.282;9.508;2023-07-20T05:31:47;7.55;;;5.68;;
5762;SDS011;2906;53.282;9.508;2023-07-20T05:32:49;5.30;;;4.80;;
5762;SDS011;2906;53.282;9.508;2023-07-20T05:33:53;7.22;;;5.60;;
5762;SDS011;2906;53.282;9.508;2023-07-20T05:34:55;5.68;;;5.18;;
5762;SDS011;2906;53.282;9.508;2023-07-20T05:35:57;6.50;;;5.88;;
5762;SDS011;2906;53.282;9.508;2023-07-20T05:36:59;44.30;;;31.23;;
5762;SDS011;2906;53.282;9.508;2023-07-20T05:38:01;75.07;;;51.75;;
5762;SDS011;2906;53.282;9.508;2023-07-20T05:39:04;75.00;;;50.00;;
5762;SDS011;2906;53.282;9.508;2023-07-20T05:40:08;20.80;;;11.48;;
5762;SDS011;2906;53.282;9.508;2023-07-20T05:41:12;25.42;;;13.70;;
5762;SDS011;2906;53.282;9.508;2023-07-20T05:42:14;59.65;;;26.75;;
5762;SDS011;2906;53.282;9.508;2023-07-20T05:43:15;13.00;;;9.57;;
5762;SDS011;2906;53.282;9.508;2023-07-20T05:44:18;10.48;;;6.28;;
5762;SDS011;2906;53.282;9.508;2023-07-20T05:45:19;7.93;;;6.50;;
5762;SDS011;2906;53.282;9.508;2023-07-20T05:46:21;8.88;;;6.32;;
5762;SDS011;2906;53.282;9.508;2023-07-20T05:47:24;7.07;;;5.30;;
5762;SDS011;2906;53.282;9.508;2023-07-20T05:48:26;5.55;;;5.03;;
5762;SDS011;2906;53.282;9.508;2023-07-20T05:49:28;7.90;;;4.70;;
5762;SDS011;2906;53.282;9.508;2023-07-20T05:50:30;6.80;;;5.03;;
5762;SDS011;2906;53.282;9.508;2023-07-20T05:51:31;11.85;;;5.35;;
5762;SDS011;2906;53.282;9.508;2023-07-20T05:52:33;8.55;;;5.32;;
5762;SDS011;2906;53.282;9.508;2023-07-20T05:53:35;4.45;;;4.15;;
5762;SDS011;2906;53.282;9.508;2023-07-20T05:54:36;4.82;;;4.43;;
5762;SDS011;2906;53.282;9.508;2023-07-20T05:55:40;5.00;;;4.10;;
5762;SDS011;2906;53.282;9.508;2023-07-20T05:56:41;4.78;;;4.00;;
5762;SDS011;2906;53.282;9.508;2023-07-20T05:57:43;7.10;;;4.28;;
5762;SDS011;2906;53.282;9.508;2023-07-20T05:58:44;4.43;;;3.80;;
5762;SDS011;2906;53.282;9.508;2023-07-20T05:59:47;4.90;;;3.78;;
5762;SDS011;2906;53.282;9.508;2023-07-20T06:00:48;3.97;;;3.58;;
5762;SDS011;2906;53.282;9.508;2023-07-20T06:01:51;4.72;;;3.97;;
5762;SDS011;2906;53.282;9.508;2023-07-20T06:02:52;4.70;;;3.60;;
5762;SDS011;2906;53.282;9.508;2023-07-20T06:03:55;3.40;;;3.00;;
5762;SDS011;2906;53.282;9.508;2023-07-20T06:04:56;3.90;;;3.40;;
5762;SDS011;2906;53.282;9.508;2023-07-20T06:05:59;3.90;;;3.60;;
5762;SDS011;2906;53.282;9.508;2023-07-20T06:07:01;9.20;;;3.63;;
5762;SDS011;2906;53.282;9.508;2023-07-20T06:08:03;7.35;;;2.80;;
5762;SDS011;2906;53.282;9.508;2023-07-20T06:09:05;3.38;;;3.10;;
5762;SDS011;2906;53.282;9.508;2023-07-20T06:10:11;3.47;;;3.08;;
5762;SDS011;2906;53.282;9.508;2023-07-20T06:11:14;3.33;;;3.03;;
5762;SDS011;2906;53.282;9.508;2023-07-20T06:12:17;3.80;;;3.20;;
5762;SDS011;2906;53.282;9.508;2023-07-20T06:13:18;6.82;;;3.10;;
5762;SDS011;2906;53.282;9.508;2023-07-20T06:14:21;6.47;;;2.85;;
5762;SDS011;2906;53.282;9.508;2023-07-20T06:15:24;3.15;;;2.25;;
5762;SDS011;2906;53.282;9.508;2023-07-20T06:16:26;5.93;;;2.50;;
5762;SDS011;2906;53.282;9.508;2023-07-20T06:17:28;2.40;;;2.20;;
5762;SDS011;2906;53.282;9.508;2023-07-20T06:18:30;2.00;;;1.80;;
5762;SDS011;2906;53.282;9.508;2023-07-20T06:19:31;5.05;;;2.15;;
5762;SDS011;2906;53.282;9.508;2023-07-20T06:20:34;2.13;;;1.90;;
5762;SDS011;2906;53.282;9.508;2023-07-20T06:21:35;3.95;;;1.90;;
5762;SDS011;2906;53.282;9.508;2023-07-20T06:22:36;3.30;;;2.00;;
5762;SDS011;2906;53.282;9.508;2023-07-20T06:23:39;3.70;;;1.65;;
5762;SDS011;2906;53.282;9.508;2023-07-20T06:24:40;6.43;;;1.67;;
5762;SDS011;2906;53.282;9.508;2023-07-20T06:25:43;1.83;;;1.40;;
5762;SDS011;2906;53.282;9.508;2023-07-20T06:26:45;2.70;;;1.75;;
5762;SDS011;2906;53.282;9.508;2023-07-20T06:27:48;1.65;;;1.40;;
5762;SDS011;2906;53.282;9.508;2023-07-20T06:28:50;3.88;;;1.75;;
5762;SDS011;2906;53.282;9.508;2023-07-20T06:29:53;3.13;;;1.85;;